Time;durP1;ratioP1;P1;durP2;ratioP2;P2;SDS_P1;SDS_P2;PMS_P1;PMS_P2;Temp;Humidity;BMP_temperature;BMP_pressure;BME280_temperature;BME280_humidity;BME280_pressure;Samples;Min_cycle;Max_cycle;Signal;HPM_P1;HPM_P2
2023/07/04 00:02:09;;;;;;;;;;;;;;;22.92;100.00;101161.50;5049918;28;19958;-71
2023/07/04 00:07:43;;;;;;;;;;;;;;;22.85;100.00;101139.47;5052214;28;19915;-71
2023/07/04 00:10:08;;;;;;;;;;;;;;;23.11;100.00;101151.72;5052001;28;19995;-71
2023/07/04 00:12:34;;;;;;;;;;;;;;;23.06;100.00;101138.16;5052314;28;20381;-71
2023/07/04 00:14:59;;;;;;;;;;;;;;;23.17;100.00;101146.16;5052568;28;19956;-71
2023/07/04 00:20:27;;;;;;;;;;;;;;;22.82;100.00;101148.28;5051805;28;20007;-70
2023/07/04 00:22:52;;;;;;;;;;;;;;;22.71;100.00;101152.44;5051520;28;20358;-71
2023/07/04 00:28:27;;;;;;;;;;;;;;;22.56;100.00;101145.53;5031902;28;19916;-71
2023/07/04 00:30:53;;;;;;;;;;;;;;;22.36;100.00;101149.28;5032150;28;20311;-72
2023/07/04 00:33:22;;;;;;;;;;;;;;;22.39;100.00;101147.34;5050468;28;19909;-70
2023/07/04 00:35:48;;;;;;;;;;;;;;;22.44;100.00;101153.09;5035727;28;20347;-71
2023/07/04 00:41:20;;;;;;;;;;;;;;;22.17;100.00;101152.09;5035417;28;19913;-71
2023/07/04 00:43:58;;;;;;;;;;;;;;;22.23;100.00;101176.81;5035437;28;19909;-71
2023/07/04 00:46:38;;;;;;;;;;;;;;;22.27;100.00;101189.53;5035549;28;20050;-71
2023/07/04 00:52:09;;;;;;;;;;;;;;;21.98;100.00;101234.38;5035494;28;19916;-71
2023/07/04 00:54:36;;;;;;;;;;;;;;;21.86;100.00;101286.00;5050194;28;19916;-72
2023/07/04 00:57:04;;;;;;;;;;;;;;;21.82;100.00;101342.31;5035008;28;19909;-71
2023/07/04 00:59:32;;;;;;;;;;;;;;;21.84;100.00;101371.56;5035014;28;19905;-72
2023/07/04 01:05:03;;;;;;;;;;;;;;;21.44;100.00;101426.22;5035249;28;19912;-71
2023/07/04 01:10:36;;;;;;;;;;;;;;;21.60;100.00;101494.47;5034886;28;19915;-71
2023/07/04 01:13:02;;;;;;;;;;;;;;;21.50;100.00;101506.19;5049966;28;19917;-72
2023/07/04 01:15:30;;;;;;;;;;;;;;;21.23;100.00;101528.22;5049506;28;20331;-70
2023/07/04 01:17:56;;;;;;;;;;;;;;;21.45;100.00;101552.16;5033394;28;19908;-71
2023/07/04 01:23:31;;;;;;;;;;;;;;;21.58;100.00;101571.38;5034603;28;20012;-71
2023/07/04 01:26:10;;;;;;;;;;;;;;;21.28;100.00;101578.00;5051465;28;19919;-71
2023/07/04 01:28:36;;;;;;;;;;;;;;;21.08;100.00;101597.03;5054167;28;19915;-70
2023/07/04 01:31:01;;;;;;;;;;;;;;;21.28;100.00;101629.75;5054622;28;20011;-71
2023/07/04 01:33:26;;;;;;;;;;;;;;;21.23;100.00;101644.66;5054104;28;19912;-71
2023/07/04 01:35:52;;;;;;;;;;;;;;;21.19;100.00;101651.72;5054566;28;20316;-71
2023/07/04 01:38:17;;;;;;;;;;;;;;;20.89;100.00;101659.94;5053750;28;19905;-71
2023/07/04 01:43:48;;;;;;;;;;;;;;;21.46;100.00;101696.22;5053157;28;19911;-71
2023/07/04 01:46:14;;;;;;;;;;;;;;;21.38;100.00;101711.25;5054304;28;20244;-72
2023/07/04 01:48:39;;;;;;;;;;;;;;;21.18;100.00;101712.13;5054377;28;19915;-70
2023/07/04 01:51:04;;;;;;;;;;;;;;;21.44;100.00;101727.34;5054045;28;19908;-71
2023/07/04 01:56:33;;;;;;;;;;;;;;;21.05;100.00;101721.34;5053908;28;19982;-71
2023/07/04 01:58:59;;;;;;;;;;;;;;;21.14;100.00;101725.25;5053791;28;19982;-71
2023/07/04 02:01:24;;;;;;;;;;;;;;;21.01;100.00;101721.50;5054023;28;20359;-72
2023/07/04 02:03:50;;;;;;;;;;;;;;;21.28;100.00;101741.03;5053851;28;19924;-71
2023/07/04 02:09:18;;;;;;;;;;;;;;;21.10;100.00;101719.38;5053771;28;19962;-70
2023/07/04 02:11:45;;;;;;;;;;;;;;;21.44;100.00;101748.06;5052943;28;19913;-70
2023/07/04 02:14:11;;;;;;;;;;;;;;;21.62;100.00;101746.38;5052239;28;19915;-70
2023/07/04 02:16:36;;;;;;;;;;;;;;;21.57;100.00;101750.91;5053519;28;19909;-70
2023/07/04 02:22:04;;;;;;;;;;;;;;;21.50;100.00;101734.00;5053367;28;19919;-70
2023/07/04 02:24:29;;;;;;;;;;;;;;;21.26;100.00;101740.25;5053301;28;19916;-70
2023/07/04 02:29:57;;;;;;;;;;;;;;;21.80;100.00;101740.38;5053341;28;20381;-70
2023/07/04 02:32:22;;;;;;;;;;;;;;;21.72;100.00;101749.41;5052720;28;19905;-70
2023/07/04 02:34:48;;;;;;;;;;;;;;;21.58;100.00;101745.69;5051763;28;19908;-70
2023/07/04 02:37:13;;;;;;;;;;;;;;;21.21;100.00;101740.47;5053448;28;19908;-70
2023/07/04 02:42:41;;;;;;;;;;;;;;;21.30;100.00;101742.66;5053368;28;20051;-70
2023/07/04 02:45:08;;;;;;;;;;;;;;;21.50;100.00;101780.59;5051940;28;19952;-71
2023/07/04 02:47:33;;;;;;;;;;;;;;;21.50;100.00;101781.44;5051184;28;19909;-72
2023/07/04 02:49:58;;;;;;;;;;;;;;;21.60;100.00;101774.09;5053071;28;19908;-70
2023/07/04 02:55:27;;;;;;;;;;;;;;;21.40;100.00;101759.44;5052643;28;19912;-71
2023/07/04 03:00:55;;;;;;;;;;;;;;;20.83;100.00;101764.50;5052966;28;19958;-71
2023/07/04 03:03:22;;;;;;;;;;;;;;;20.78;100.00;101774.19;5034512;28;20351;-70
2023/07/04 03:05:47;;;;;;;;;;;;;;;20.84;100.00;101792.03;5052755;28;19909;-69
2023/07/04 03:08:13;;;;;;;;;;;;;;;20.50;100.00;101753.78;5052434;28;19905;-69
2023/07/04 03:13:40;;;;;;;;;;;;;;;20.85;100.00;101805.81;5052550;28;19962;-70
2023/07/04 03:16:06;;;;;;;;;;;;;;;21.01;100.00;101835.31;5034407;28;19905;-70
2023/07/04 03:18:32;;;;;;;;;;;;;;;20.95;100.00;101843.34;5050800;28;19919;-70
2023/07/04 03:20:57;;;;;;;;;;;;;;;21.07;100.00;101845.44;5051921;28;19928;-69
2023/07/04 03:26:25;;;;;;;;;;;;;;;21.08;100.00;101826.41;5037517;28;19919;-70
2023/07/04 03:28:50;;;;;;;;;;;;;;;21.31;100.00;101842.66;5052167;28;20006;-69
2023/07/04 03:31:16;;;;;;;;;;;;;;;21.33;100.00;101843.44;5051724;28;19915;-70
2023/07/04 03:33:41;;;;;;;;;;;;;;;21.17;100.00;101845.00;5052624;28;19912;-70
2023/07/04 03:36:06;;;;;;;;;;;;;;;21.51;100.00;101857.38;5050958;28;19916;-70
2023/07/04 03:41:34;;;;;;;;;;;;;;;21.59;100.00;101821.59;5052165;28;19911;-69
2023/07/04 03:44:00;;;;;;;;;;;;;;;22.03;100.00;101853.31;5050128;28;19913;-69
2023/07/04 03:46:26;;;;;;;;;;;;;;;22.19;100.00;101849.97;5052582;28;19908;-70
2023/07/04 03:48:51;;;;;;;;;;;;;;;22.10;100.00;101834.00;5052334;28;20066;-70
2023/07/04 03:51:16;;;;;;;;;;;;;;;21.95;100.00;101832.94;5050392;28;19948;-70
2023/07/04 03:53:41;;;;;;;;;;;;;;;21.91;100.00;101830.56;5052131;28;19912;-69
2023/07/04 03:56:07;;;;;;;;;;;;;;;21.98;100.00;101826.78;5052282;28;19909;-71
2023/07/04 03:58:32;;;;;;;;;;;;;;;22.03;100.00;101827.41;5052647;28;19915;-69
2023/07/04 04:00:57;;;;;;;;;;;;;;;21.83;100.00;101817.16;5052186;28;19909;-70
2023/07/04 04:06:25;;;;;;;;;;;;;;;22.39;100.00;101821.38;5052594;28;19911;-70
2023/07/04 04:08:51;;;;;;;;;;;;;;;22.37;100.00;101824.94;5037659;28;19909;-70
2023/07/04 04:11:16;;;;;;;;;;;;;;;22.49;100.00;101826.97;5055940;28;20357;-69
2023/07/04 04:13:41;;;;;;;;;;;;;;;22.49;100.00;101826.13;5054719;28;20353;-70
2023/07/04 04:19:09;;;;;;;;;;;;;;;22.57;100.00;101818.81;5055765;28;19970;-69
2023/07/04 04:21:34;;;;;;;;;;;;;;;22.74;100.00;101832.66;5055918;28;20342;-69
2023/07/04 04:24:00;;;;;;;;;;;;;;;22.96;100.00;101833.31;5054381;28;19963;-69
2023/07/04 04:26:25;;;;;;;;;;;;;;;23.04;100.00;101822.53;5055471;28;19919;-72
2023/07/04 04:31:53;;;;;;;;;;;;;;;23.23;100.00;101816.34;5055687;28;20381;-71
2023/07/04 04:34:20;;;;;;;;;;;;;;;23.27;100.00;101822.25;5055076;28;19908;-72
2023/07/04 04:36:45;;;;;;;;;;;;;;;23.37;100.00;101826.06;5054142;28;19957;-71
2023/07/04 04:39:11;;;;;;;;;;;;;;;23.56;100.00;101821.59;5055584;28;19908;-72
2023/07/04 04:44:39;;;;;;;;;;;;;;;23.74;100.00;101786.84;5055739;28;20274;-70
2023/07/04 04:47:07;;;;;;;;;;;;;;;24.09;100.00;101792.75;5036874;28;19904;-72
2023/07/04 04:49:32;;;;;;;;;;;;;;;24.45;100.00;101784.66;5055391;28;19909;-72
2023/07/04 04:51:57;;;;;;;;;;;;;;;24.48;100.00;101774.09;5037292;28;19911;-72
2023/07/04 04:57:26;;;;;;;;;;;;;;;24.62;100.00;101717.72;5055171;28;19912;-73
2023/07/04 04:59:51;;;;;;;;;;;;;;;24.80;100.00;101714.09;5054200;28;19905;-72
2023/07/04 05:02:17;;;;;;;;;;;;;;;24.92;100.00;101707.31;5054448;28;19909;-71
2023/07/04 05:04:42;;;;;;;;;;;;;;;25.15;100.00;101700.72;5055100;28;20296;-71
2023/07/04 05:10:10;;;;;;;;;;;;;;;25.21;100.00;101636.09;5054870;28;20397;-71
2023/07/04 05:12:35;;;;;;;;;;;;;;;25.13;100.00;101633.13;5054506;28;19912;-71
2023/07/04 05:15:00;;;;;;;;;;;;;;;24.70;100.00;101629.66;5055065;28;19909;-71
2023/07/04 05:17:26;;;;;;;;;;;;;;;25.49;100.00;101650.84;5054886;28;19912;-71
2023/07/04 05:22:56;;;;;;;;;;;;;;;25.08;100.00;101571.84;5054674;28;20004;-71
2023/07/04 05:25:22;;;;;;;;;;;;;;;25.57;100.00;101570.44;5036616;28;19908;-71
2023/07/04 05:27:47;;;;;;;;;;;;;;;26.08;100.00;101540.09;5055204;28;19962;-71
2023/07/04 05:30:13;;;;;;;;;;;;;;;25.50;100.00;101447.53;5054780;28;19913;-72
2023/07/04 05:35:41;;;;;;;;;;;;;;;25.61;100.00;101334.75;5054481;28;19970;-72
2023/07/04 05:38:06;;;;;;;;;;;;;;;26.34;100.00;101333.06;5054284;28;20343;-72
2023/07/04 05:40:32;;;;;;;;;;;;;;;26.71;100.00;101294.69;5052757;28;20003;-72
2023/07/04 05:42:57;;;;;;;;;;;;;;;26.86;100.00;101264.84;5053907;28;19915;-72
2023/07/04 05:48:25;;;;;;;;;;;;;;;27.00;100.00;101165.41;5054236;28;19914;-72
2023/07/04 05:53:53;;;;;;;;;;;;;;;27.67;100.00;101061.63;5054195;28;20382;-72
2023/07/04 05:56:24;;;;;;;;;;;;;;;27.58;100.00;101018.75;5052613;28;19908;-72
2023/07/04 05:58:51;;;;;;;;;;;;;;;27.13;100.00;100965.81;5052493;28;20394;-72
2023/07/04 06:01:19;;;;;;;;;;;;;;;27.70;100.00;100939.31;5052438;28;19912;-72
2023/07/04 06:06:51;;;;;;;;;;;;;;;27.73;100.00;100859.81;5053852;28;19912;-72
2023/07/04 06:09:17;;;;;;;;;;;;;;;27.49;100.00;100849.66;5052248;28;19908;-72
2023/07/04 06:11:45;;;;;;;;;;;;;;;28.09;100.00;100833.94;5053855;28;20294;-72
2023/07/04 06:14:12;;;;;;;;;;;;;;;28.38;100.00;100805.22;5053735;28;19915;-72
2023/07/04 06:16:37;;;;;;;;;;;;;;;28.23;100.00;100776.00;5053348;28;19909;-73
2023/07/04 06:19:03;;;;;;;;;;;;;;;28.41;100.00;100749.16;5053321;28;19915;-72
2023/07/04 06:21:28;;;;;;;;;;;;;;;28.80;100.00;100717.59;5053640;28;20002;-73
2023/07/04 06:26:56;;;;;;;;;;;;;;;28.98;100.00;100869.59;5049084;28;19919;-72
2023/07/04 06:32:24;;;;;;;;;;;;;;;28.97;100.00;101779.69;5053574;28;19912;-72
2023/07/04 06:37:52;;;;;;;;;;;;;;;29.16;100.00;101255.81;5053223;28;19962;-71
2023/07/04 06:40:18;;;;;;;;;;;;;;;29.48;100.00;101232.06;5052592;28;19909;-71
2023/07/04 06:42:43;;;;;;;;;;;;;;;29.96;100.00;101230.44;5051677;28;20290;-72
2023/07/04 06:45:08;;;;;;;;;;;;;;;29.68;100.00;101850.22;5053415;28;20271;-72
2023/07/04 06:50:36;;;;;;;;;;;;;;;29.38;100.00;101860.44;5053307;28;19951;-71
2023/07/04 06:53:02;;;;;;;;;;;;;;;29.50;100.00;101637.44;5052596;28;20343;-72
2023/07/04 06:55:27;;;;;;;;;;;;;;;30.02;100.00;101643.69;5052536;28;19908;-72
2023/07/04 06:57:52;;;;;;;;;;;;;;;29.94;100.00;101508.72;5052587;28;20380;-71
2023/07/04 07:03:20;;;;;;;;;;;;;;;29.90;100.00;101373.50;5052766;28;19966;-71
2023/07/04 07:05:45;;;;;;;;;;;;;;;30.47;100.00;101217.88;5052701;28;19951;-71
2023/07/04 07:08:14;;;;;;;;;;;;;;;30.31;100.00;100989.22;5051544;28;19909;-71
2023/07/04 07:10:39;;;;;;;;;;;;;;;30.77;100.00;100161.63;5052816;28;20351;-71
2023/07/04 07:13:05;;;;;;;;;;;;;;;30.63;100.00;99822.75;5053432;28;19912;-72
2023/07/04 07:15:30;;;;;;;;;;;;;;;30.86;100.00;99818.34;5052168;28;19909;-71
2023/07/04 07:17:56;;;;;;;;;;;;;;;31.18;100.00;99815.41;5034665;28;19962;-71
2023/07/04 07:20:21;;;;;;;;;;;;;;;31.09;100.00;99802.53;5052467;28;19973;-73
2023/07/04 07:25:56;;;;;;;;;;;;;;;31.27;100.00;99819.63;5052512;28;20007;-71
2023/07/04 07:28:22;;;;;;;;;;;;;;;30.84;100.00;99825.59;5052938;28;19920;-72
2023/07/04 07:30:47;;;;;;;;;;;;;;;31.51;100.00;99842.25;5052481;28;20429;-71
2023/07/04 07:33:12;;;;;;;;;;;;;;;30.85;100.00;99858.72;5052289;28;19905;-72
2023/07/04 07:38:41;;;;;;;;;;;;;;;31.85;100.00;99881.16;5052314;28;20420;-72
2023/07/04 07:41:07;;;;;;;;;;;;;;;31.93;100.00;99910.06;5051173;28;19909;-72
2023/07/04 07:43:33;;;;;;;;;;;;;;;31.97;100.00;99942.91;5052249;28;19916;-72
2023/07/04 07:45:58;;;;;;;;;;;;;;;31.26;100.00;99982.72;5051988;28;20375;-71
2023/07/04 07:51:27;;;;;;;;;;;;;;;31.89;100.00;100075.31;5052437;28;20306;-72
2023/07/04 07:53:55;;;;;;;;;;;;;;;31.38;100.00;100097.88;5052097;28;19913;-72
2023/07/04 07:56:21;;;;;;;;;;;;;;;32.07;100.00;100194.28;5050722;28;19912;-71
2023/07/04 07:58:47;;;;;;;;;;;;;;;31.74;100.00;100339.34;5051816;28;19913;-72
2023/07/04 08:01:14;;;;;;;;;;;;;;;31.95;100.00;100410.69;5050106;28;20341;-73
2023/07/04 08:03:39;;;;;;;;;;;;;;;31.91;100.00;100436.47;5052261;28;19909;-73
2023/07/04 08:06:04;;;;;;;;;;;;;;;31.57;100.00;100456.94;5050694;28;19916;-73
2023/07/04 08:08:29;;;;;;;;;;;;;;;31.23;100.00;100467.59;5051447;28;19922;-74
2023/07/04 08:13:58;;;;;;;;;;;;;;;32.26;100.00;100535.31;5052016;28;19939;-73
2023/07/04 08:16:27;;;;;;;;;;;;;;;32.42;100.00;100554.53;5051515;28;19905;-73
2023/07/04 08:18:53;;;;;;;;;;;;;;;31.90;100.00;100519.06;5047363;28;19909;-73
2023/07/04 08:21:18;;;;;;;;;;;;;;;32.46;100.00;100560.31;5050921;28;20268;-73
2023/07/04 08:26:46;;;;;;;;;;;;;;;33.26;100.00;100596.88;5051989;28;19970;-71
2023/07/04 08:32:14;;;;;;;;;;;;;;;32.34;100.00;100559.81;5051793;28;19927;-72
2023/07/04 08:34:39;;;;;;;;;;;;;;;31.88;100.00;100542.09;5051627;28;20355;-73
2023/07/04 08:37:05;;;;;;;;;;;;;;;33.08;100.00;100537.50;5034014;28;20007;-72
2023/07/04 08:39:30;;;;;;;;;;;;;;;33.09;100.00;100518.88;5051449;28;20351;-73
2023/07/04 08:44:58;;;;;;;;;;;;;;;31.97;100.00;100456.09;5051739;28;19912;-72
2023/07/04 08:47:27;;;;;;;;;;;;;;;33.01;100.00;100453.00;5049751;28;19908;-72
2023/07/04 08:50:00;;;;;;;;;;;;;;;33.53;100.00;100442.56;5050187;28;20012;-72
2023/07/04 08:52:25;;;;;;;;;;;;;;;33.16;100.00;100413.50;5051927;28;19912;-72
2023/07/04 08:58:00;;;;;;;;;;;;;;;33.81;100.00;100392.63;5055027;28;19962;-71
2023/07/04 09:00:28;;;;;;;;;;;;;;;32.83;100.00;100375.16;5054795;28;20052;-72
2023/07/04 09:02:56;;;;;;;;;;;;;;;33.61;100.00;100378.31;5053693;28;19912;-72
2023/07/04 09:05:39;;;;;;;;;;;;;;;33.66;100.00;100366.22;5055098;28;19916;-71
2023/07/04 09:08:12;;;;;;;;;;;;;;;32.84;100.00;100334.66;5055467;28;19909;-72
2023/07/04 09:13:42;;;;;;;;;;;;;;;33.15;100.00;100324.84;5055071;28;19958;-73
2023/07/04 09:16:10;;;;;;;;;;;;;;;33.86;100.00;100348.84;5053264;28;20007;-74
2023/07/04 09:18:41;;;;;;;;;;;;;;;32.68;100.00;100313.69;5054838;28;20011;-73
2023/07/04 09:21:10;;;;;;;;;;;;;;;33.36;100.00;100332.88;5054684;28;19916;-73
2023/07/04 09:23:35;;;;;;;;;;;;;;;34.03;100.00;100342.38;5054598;28;19908;-72
2023/07/04 09:26:00;;;;;;;;;;;;;;;33.59;100.00;100330.19;5055116;28;19915;-69
2023/07/04 09:28:27;;;;;;;;;;;;;;;33.18;100.00;100317.41;5052701;28;19912;-69
2023/07/04 09:30:54;;;;;;;;;;;;;;;34.11;100.00;100330.06;5054756;28;19913;-69
2023/07/04 09:36:29;;;;;;;;;;;;;;;34.90;100.00;100325.38;5054426;28;20390;-70
2023/07/04 09:41:59;;;;;;;;;;;;;;;33.08;100.00;100295.75;5054234;28;19912;-70
2023/07/04 09:44:29;;;;;;;;;;;;;;;33.83;100.00;100314.06;5053856;28;19913;-70
2023/07/04 09:46:56;;;;;;;;;;;;;;;33.27;100.00;100304.94;5052818;28;19913;-69
2023/07/04 09:49:33;;;;;;;;;;;;;;;33.54;100.00;100298.25;5052611;28;20275;-70
2023/07/04 09:55:24;;;;;;;;;;;;;;;33.42;100.00;100300.50;5054091;28;19912;-70
2023/07/04 10:01:19;;;;;;;;;;;;;;;33.98;100.00;100299.88;5054000;28;19914;-73
2023/07/04 10:03:45;;;;;;;;;;;;;;;34.51;100.00;100311.00;5051177;28;20279;-73
2023/07/04 10:06:11;;;;;;;;;;;;;;;32.28;100.00;100277.91;5053489;28;20007;-74
2023/07/04 10:08:56;;;;;;;;;;;;;;;33.72;100.00;100298.69;5053851;28;19916;-72
2023/07/04 10:11:33;;;;;;;;;;;;;;;33.83;100.00;100298.22;5053388;28;19952;-74
2023/07/04 10:17:09;;;;;;;;;;;;;;;33.90;100.00;100296.47;5053683;28;20043;-73
2023/07/04 10:19:40;;;;;;;;;;;;;;;35.33;100.00;100302.34;5053379;28;19995;-73
2023/07/04 10:22:05;;;;;;;;;;;;;;;35.22;100.00;100302.06;5053700;28;19975;-74
2023/07/04 10:27:34;;;;;;;;;;;;;;;34.16;100.00;100274.88;5047619;28;19963;-73
2023/07/04 10:33:07;;;;;;;;;;;;;;;32.76;100.00;100268.84;5053459;28;19926;-74
2023/07/04 10:38:50;;;;;;;;;;;;;;;33.13;100.00;100276.75;5053411;28;20042;-73
2023/07/04 10:41:18;;;;;;;;;;;;;;;34.32;100.00;100280.72;5053227;28;19920;-74
2023/07/04 10:43:47;;;;;;;;;;;;;;;34.09;100.00;100272.16;5053183;28;19913;-74
2023/07/04 10:46:15;;;;;;;;;;;;;;;34.02;100.00;100252.78;5053198;28;19921;-73
2023/07/04 10:48:44;;;;;;;;;;;;;;;34.15;100.00;100258.19;5053264;28;20363;-72
2023/07/04 10:51:15;;;;;;;;;;;;;;;34.26;100.00;100259.53;5052965;28;19908;-72
2023/07/04 10:56:45;;;;;;;;;;;;;;;34.52;100.00;100249.25;5052887;28;19915;-71
2023/07/04 10:59:20;;;;;;;;;;;;;;;34.48;100.00;100250.63;5052168;28;19909;-72
2023/07/04 11:01:51;;;;;;;;;;;;;;;34.09;100.00;100227.28;5051637;28;19916;-72
2023/07/04 11:07:23;;;;;;;;;;;;;;;34.88;100.00;100226.94;5052756;28;20047;-72
2023/07/04 11:12:52;;;;;;;;;;;;;;;34.73;100.00;100226.22;5052706;28;19947;-70
2023/07/04 11:15:29;;;;;;;;;;;;;;;33.85;100.00;100199.34;5052268;28;20282;-71
2023/07/04 11:17:54;;;;;;;;;;;;;;;34.38;100.00;100207.81;5052463;28;20290;-72
2023/07/04 11:20:42;;;;;;;;;;;;;;;34.07;100.00;100197.59;5052581;28;19908;-72
2023/07/04 11:23:15;;;;;;;;;;;;;;;34.71;100.00;100198.34;5046671;28;20007;-72
2023/07/04 11:25:41;;;;;;;;;;;;;;;34.75;100.00;100186.38;5052000;28;19915;-72
2023/07/04 11:31:30;;;;;;;;;;;;;;;34.35;100.00;100187.88;5040347;28;20069;-71
2023/07/04 11:36:59;;;;;;;;;;;;;;;34.78;100.00;100180.72;5055115;28;19912;-71
2023/07/04 11:39:28;;;;;;;;;;;;;;;34.67;100.00;100181.25;5052510;28;20266;-71
2023/07/04 11:41:56;;;;;;;;;;;;;;;35.38;100.00;100172.09;5050661;28;19923;-71
2023/07/04 11:44:41;;;;;;;;;;;;;;;34.67;100.00;100174.13;5052118;28;20007;-71
2023/07/04 11:47:09;;;;;;;;;;;;;;;35.14;100.00;100164.69;5051048;28;20003;-71
2023/07/04 11:49:35;;;;;;;;;;;;;;;34.06;100.00;100164.25;5050710;28;19917;-72
2023/07/04 11:55:13;;;;;;;;;;;;;;;34.46;100.00;100171.53;5052204;28;19959;-71
2023/07/04 11:57:59;;;;;;;;;;;;;;;34.69;100.00;100176.56;5052145;28;19908;-72
2023/07/04 12:03:26;;;;;;;;;;;;;;;34.75;100.00;100158.13;5052059;28;19966;-72
2023/07/04 12:05:53;;;;;;;;;;;;;;;35.07;100.00;100185.78;5052032;28;19912;-71
2023/07/04 12:08:40;;;;;;;;;;;;;;;34.56;100.00;100171.22;5051149;28;20286;-72
2023/07/04 12:14:10;;;;;;;;;;;;;;;34.93;100.00;100173.47;5051971;28;19930;-73
2023/07/04 12:16:35;;;;;;;;;;;;;;;35.07;100.00;100177.84;5049973;28;20384;-71
2023/07/04 12:22:03;;;;;;;;;;;;;;;34.76;100.00;100165.06;5051846;28;19943;-72
2023/07/04 12:24:29;;;;;;;;;;;;;;;35.15;100.00;100172.41;5051227;28;19948;-72
2023/07/04 12:26:58;;;;;;;;;;;;;;;34.94;100.00;100161.91;5052084;28;19995;-72
2023/07/04 12:29:25;;;;;;;;;;;;;;;34.79;100.00;100151.44;5055075;28;19908;-72
2023/07/04 12:35:06;;;;;;;;;;;;;;;35.35;100.00;100154.78;5055586;28;19931;-73
2023/07/04 12:37:39;;;;;;;;;;;;;;;34.37;100.00;100134.88;5055492;28;19912;-73
2023/07/04 12:40:05;;;;;;;;;;;;;;;34.49;100.00;100143.91;5055488;28;20016;-73
2023/07/04 12:45:33;;;;;;;;;;;;;;;35.00;100.00;100144.47;5055371;28;19966;-72
2023/07/04 12:51:01;;;;;;;;;;;;;;;34.91;100.00;100122.63;5055251;28;19912;-72
2023/07/04 12:53:28;;;;;;;;;;;;;;;35.34;100.00;100139.91;5054633;28;19909;-72
2023/07/04 12:55:54;;;;;;;;;;;;;;;35.35;100.00;100143.38;5055416;28;19909;-71
2023/07/04 13:01:28;;;;;;;;;;;;;;;35.82;100.00;100122.13;5055046;28;19912;-72
2023/07/04 13:04:05;;;;;;;;;;;;;;;35.26;100.00;100131.34;5055296;28;19908;-73
2023/07/04 13:06:31;;;;;;;;;;;;;;;35.37;100.00;100118.38;5054785;28;19909;-73
2023/07/04 13:11:59;;;;;;;;;;;;;;;34.48;100.00;100116.69;5055081;28;20370;-72
2023/07/04 13:14:27;;;;;;;;;;;;;;;34.71;100.00;100113.75;5053347;28;19909;-72
2023/07/04 13:17:06;;;;;;;;;;;;;;;34.52;100.00;100098.63;5054669;28;19915;-72
2023/07/04 13:19:33;;;;;;;;;;;;;;;34.74;100.00;100102.81;5055350;28;20349;-72
2023/07/04 13:22:10;;;;;;;;;;;;;;;34.79;100.00;100113.59;5054397;28;19909;-73
2023/07/04 13:24:36;;;;;;;;;;;;;;;34.58;100.00;100095.19;5054884;28;20003;-72
2023/07/04 13:27:19;;;;;;;;;;;;;;;34.75;100.00;100096.50;5053810;28;20010;-72
2023/07/04 13:29:52;;;;;;;;;;;;;;;34.75;100.00;100091.22;5054622;28;20385;-72
2023/07/04 13:32:22;;;;;;;;;;;;;;;34.54;100.00;100089.50;5052988;28;19935;-71
2023/07/04 13:34:47;;;;;;;;;;;;;;;34.91;100.00;100099.66;5054362;28;19917;-72
2023/07/04 13:37:12;;;;;;;;;;;;;;;35.29;100.00;100097.38;5054541;28;20347;-71
2023/07/04 13:39:37;;;;;;;;;;;;;;;35.22;100.00;100101.81;5053093;28;19911;-72
2023/07/04 13:42:03;;;;;;;;;;;;;;;34.77;100.00;100082.09;5054552;28;20414;-72
2023/07/04 13:47:31;;;;;;;;;;;;;;;34.56;100.00;100091.94;5054308;28;19927;-72
2023/07/04 13:49:56;;;;;;;;;;;;;;;34.63;100.00;100085.66;5054295;28;20336;-73
2023/07/04 13:52:22;;;;;;;;;;;;;;;34.91;100.00;100094.34;5054378;28;19908;-72
2023/07/04 13:54:47;;;;;;;;;;;;;;;34.57;100.00;100090.91;5054240;28;20418;-71
2023/07/04 14:00:15;;;;;;;;;;;;;;;33.02;100.00;100108.50;5054072;28;19962;-72
2023/07/04 14:02:40;;;;;;;;;;;;;;;33.20;100.00;100116.81;5053823;28;19908;-71
2023/07/04 14:05:06;;;;;;;;;;;;;;;32.95;100.00;100113.63;5052914;28;19909;-70
2023/07/04 14:07:31;;;;;;;;;;;;;;;33.01;100.00;100120.84;5053122;28;19905;-72
2023/07/04 14:13:00;;;;;;;;;;;;;;;32.87;100.00;100112.91;5053851;28;19969;-71
2023/07/04 14:18:28;;;;;;;;;;;;;;;33.29;100.00;100113.06;5053978;28;19915;-70
2023/07/04 14:20:54;;;;;;;;;;;;;;;33.12;100.00;100107.19;5052202;28;19908;-70
2023/07/04 14:23:19;;;;;;;;;;;;;;;33.05;100.00;100108.09;5053784;28;19916;-70
2023/07/04 14:25:46;;;;;;;;;;;;;;;33.33;100.00;100098.50;5053240;28;20354;-71
2023/07/04 14:28:11;;;;;;;;;;;;;;;33.83;100.00;100106.34;5053015;28;20370;-71
2023/07/04 14:33:53;;;;;;;;;;;;;;;33.83;100.00;100101.06;5042270;28;19919;-70
2023/07/04 14:36:18;;;;;;;;;;;;;;;34.18;100.00;100104.66;5052133;28;19912;-69
2023/07/04 14:38:44;;;;;;;;;;;;;;;33.28;100.00;100090.31;5052997;28;19909;-70
2023/07/04 14:41:09;;;;;;;;;;;;;;;33.66;100.00;100101.50;5053249;28;19909;-70
2023/07/04 14:46:37;;;;;;;;;;;;;;;33.77;100.00;100087.84;5053197;28;19935;-69
2023/07/04 14:49:02;;;;;;;;;;;;;;;33.30;100.00;100085.69;5052867;28;19912;-68
2023/07/04 14:51:27;;;;;;;;;;;;;;;33.64;100.00;100100.88;5052824;28;20327;-67
2023/07/04 14:53:53;;;;;;;;;;;;;;;33.45;100.00;100091.75;5052475;28;19916;-67
2023/07/04 14:56:18;;;;;;;;;;;;;;;33.52;100.00;100097.09;5052714;28;19909;-68
2023/07/04 14:58:43;;;;;;;;;;;;;;;33.61;100.00;100102.09;5034415;28;19912;-67
2023/07/04 15:01:19;;;;;;;;;;;;;;;33.47;100.00;100099.47;5052940;28;20355;-67
2023/07/04 15:06:47;;;;;;;;;;;;;;;32.85;100.00;100084.09;5052830;28;19912;-67
2023/07/04 15:09:13;;;;;;;;;;;;;;;32.73;100.00;100090.84;5052218;28;19912;-68
2023/07/04 15:11:38;;;;;;;;;;;;;;;32.18;100.00;100093.88;5052804;28;19958;-67
2023/07/04 15:14:03;;;;;;;;;;;;;;;32.63;100.00;100100.00;5052570;28;20008;-66
2023/07/04 15:16:29;;;;;;;;;;;;;;;32.89;100.00;100097.72;5053023;28;19909;-67
2023/07/04 15:18:54;;;;;;;;;;;;;;;32.73;100.00;100111.09;5052285;28;19909;-66
2023/07/04 15:21:21;;;;;;;;;;;;;;;32.98;100.00;100120.41;5052682;28;19939;-67
2023/07/04 15:23:46;;;;;;;;;;;;;;;32.61;100.00;100115.19;5052868;28;20392;-67
2023/07/04 15:26:13;;;;;;;;;;;;;;;32.97;100.00;100121.38;5051256;28;19916;-67
2023/07/04 15:28:42;;;;;;;;;;;;;;;32.59;100.00;100118.00;5050932;28;19970;-67
2023/07/04 15:31:07;;;;;;;;;;;;;;;32.93;100.00;100115.63;5034555;28;19909;-67
2023/07/04 15:33:32;;;;;;;;;;;;;;;32.63;100.00;100127.19;5052238;28;19917;-67
2023/07/04 15:39:00;;;;;;;;;;;;;;;32.73;100.00;100119.00;5052746;28;20370;-68
2023/07/04 15:41:26;;;;;;;;;;;;;;;32.97;100.00;100122.22;5050792;28;19909;-68
2023/07/04 15:43:52;;;;;;;;;;;;;;;32.96;100.00;100133.75;5050770;28;20069;-69
2023/07/04 15:46:18;;;;;;;;;;;;;;;32.73;100.00;100138.28;5052259;28;19961;-67
2023/07/04 15:48:44;;;;;;;;;;;;;;;32.43;100.00;100137.38;5051976;28;19920;-69
2023/07/04 15:51:11;;;;;;;;;;;;;;;32.42;100.00;100143.66;5052205;28;20377;-68
2023/07/04 15:53:36;;;;;;;;;;;;;;;31.80;100.00;100136.06;5050996;28;19908;-69
2023/07/04 15:56:06;;;;;;;;;;;;;;;31.63;100.00;100144.06;5052918;28;19932;-69
2023/07/04 16:01:34;;;;;;;;;;;;;;;32.15;100.00;100164.47;5058669;28;19943;-68
2023/07/04 16:04:00;;;;;;;;;;;;;;;32.46;100.00;100159.94;5053565;28;19909;-68
2023/07/04 16:06:25;;;;;;;;;;;;;;;32.27;100.00;100155.97;5057551;28;20373;-69
2023/07/04 16:08:50;;;;;;;;;;;;;;;32.09;100.00;100149.38;5061010;28;20058;-67
2023/07/04 16:14:18;;;;;;;;;;;;;;;31.78;100.00;100154.66;5055937;28;19912;-68
2023/07/04 16:16:44;;;;;;;;;;;;;;;31.76;100.00;100155.81;5055894;28;20267;-68
2023/07/04 16:19:09;;;;;;;;;;;;;;;31.63;100.00;100158.22;5054621;28;19912;-68
2023/07/04 16:21:34;;;;;;;;;;;;;;;31.42;100.00;100164.06;5056067;28;19914;-70